Time;durP1;ratioP1;P1;durP2;ratioP2;P2;SDS_P1;SDS_P2;PMS_P1;PMS_P2;Temp;Humidity;BMP_temperature;BMP_pressure;BME280_temperature;BME280_humidity;BME280_pressure;Samples;Min_cycle;Max_cycle;Signal;HPM_P1;HPM_P2
2023/03/15 00:01:15;;;;;;;7.03;2.42;;;;;;;1.92;100.00;101013.34;5131151;27;20379;-58
2023/03/15 00:03:45;;;;;;;5.57;2.03;;;;;;;1.81;100.00;101011.06;5122000;27;20050;-58
2023/03/15 00:06:14;;;;;;;5.95;1.90;;;;;;;1.79;100.00;101005.06;5125032;27;20100;-59
2023/03/15 00:08:46;;;;;;;5.35;2.05;;;;;;;1.73;100.00;101005.19;5125586;27;20100;-57
2023/03/15 00:11:16;;;;;;;4.10;1.85;;;;;;;1.71;100.00;101007.00;5129607;27;20077;-59
2023/03/15 00:13:47;;;;;;;4.03;2.00;;;;;;;1.69;100.00;101001.84;5123311;27;20043;-60
2023/03/15 00:16:17;;;;;;;6.15;2.13;;;;;;;1.65;100.00;101005.41;5130547;27;20050;-59
2023/03/15 00:18:46;;;;;;;1.95;1.40;;;;;;;1.52;100.00;101007.44;5129206;27;20059;-60
2023/03/15 00:21:15;;;;;;;3.15;1.55;;;;;;;1.57;100.00;101001.28;5125473;27;20040;-59
2023/03/15 00:23:43;;;;;;;3.28;1.30;;;;;;;1.51;100.00;101005.75;5123529;27;20088;-60
2023/03/15 00:26:13;;;;;;;3.20;1.40;;;;;;;1.52;100.00;100996.25;5138839;27;20084;-57
2023/03/15 00:28:42;;;;;;;2.55;1.50;;;;;;;1.57;100.00;100984.00;5132028;27;20043;-57
2023/03/15 00:31:16;;;;;;;2.75;1.38;;;;;;;1.56;100.00;100994.44;5135946;27;20041;-58
2023/03/15 00:33:44;;;;;;;3.35;1.80;;;;;;;1.55;100.00;100996.16;5136809;27;20099;-58
2023/03/15 00:36:13;;;;;;;3.33;1.40;;;;;;;1.54;100.00;101006.56;5136347;27;20628;-58
2023/03/15 00:38:43;;;;;;;2.72;1.50;;;;;;;1.55;100.00;101011.72;5133145;27;20047;-58
2023/03/15 00:41:15;;;;;;;1.88;1.30;;;;;;;1.58;100.00;101011.66;5116020;28;20093;-58
2023/03/15 00:43:44;;;;;;;2.97;1.50;;;;;;;1.58;100.00;101016.84;5115786;28;20047;-58
2023/03/15 00:46:16;;;;;;;2.75;1.48;;;;;;;1.59;100.00;101007.31;5123407;27;20039;-58
2023/03/15 00:48:48;;;;;;;3.17;1.60;;;;;;;1.55;100.00;101010.88;5136629;27;20406;-58
2023/03/15 00:51:18;;;;;;;2.85;1.30;;;;;;;1.50;100.00;101008.38;5134634;27;20378;-58
2023/03/15 00:53:48;;;;;;;2.67;1.60;;;;;;;1.48;100.00;101013.59;5122567;27;20368;-58
2023/03/15 00:56:19;;;;;;;2.95;1.70;;;;;;;1.49;100.00;101017.91;5131481;27;20039;-58
2023/03/15 00:58:47;;;;;;;2.60;1.88;;;;;;;1.51;100.00;101013.53;5127567;27;20047;-58
2023/03/15 01:01:20;;;;;;;3.90;1.90;;;;;;;1.50;100.00;101011.84;5126859;27;20039;-58
2023/03/15 01:03:48;;;;;;;4.15;2.05;;;;;;;1.43;100.00;101025.84;5122667;27;20066;-58
2023/03/15 01:06:19;;;;;;;4.82;2.17;;;;;;;1.42;100.00;101026.72;5119719;27;20039;-58
2023/03/15 01:08:48;;;;;;;5.18;2.30;;;;;;;1.45;100.00;101029.22;5122547;27;20039;-58
2023/03/15 01:11:19;;;;;;;4.13;2.00;;;;;;;1.47;100.00;101022.28;5120972;27;20051;-58
2023/03/15 01:13:47;;;;;;;3.78;2.03;;;;;;;1.49;100.00;101027.44;5129415;27;20800;-58
2023/03/15 01:16:18;;;;;;;4.20;2.33;;;;;;;1.48;100.00;101028.31;5129640;27;20043;-58
2023/03/15 01:18:46;;;;;;;5.45;2.50;;;;;;;1.49;100.00;101032.63;5132280;27;20100;-59
2023/03/15 01:21:16;;;;;;;6.53;2.55;;;;;;;1.55;100.00;101040.22;5120133;27;20039;-58
2023/03/15 01:23:44;;;;;;;6.68;2.65;;;;;;;1.58;100.00;101041.91;5121270;27;20036;-59
2023/03/15 01:26:15;;;;;;;5.93;2.75;;;;;;;1.60;100.00;101043.56;5121183;27;20032;-59
2023/03/15 01:28:44;;;;;;;5.70;2.67;;;;;;;1.62;100.00;101043.53;5116700;27;20371;-59
2023/03/15 01:31:19;;;;;;;5.68;2.63;;;;;;;1.59;100.00;101043.59;5122230;27;20565;-59
2023/03/15 01:33:48;;;;;;;7.32;2.70;;;;;;;1.61;100.00;101044.41;5124661;27;20589;-59
2023/03/15 01:36:17;;;;;;;7.40;3.30;;;;;;;1.63;100.00;101051.25;5132611;27;20055;-59
2023/03/15 01:38:48;;;;;;;6.13;3.05;;;;;;;1.68;100.00;101061.53;5123272;27;20101;-58
2023/03/15 01:41:18;;;;;;;6.85;3.25;;;;;;;1.63;100.00;101063.38;5114924;28;20050;-58
2023/03/15 01:43:47;;;;;;;6.32;3.30;;;;;;;1.63;100.00;101060.78;5115107;28;20050;-59
2023/03/15 01:46:23;;;;;;;5.95;3.42;;;;;;;1.69;100.00;101073.59;5130311;27;20092;-58
2023/03/15 01:48:57;;;;;;;5.97;3.45;;;;;;;1.68;100.00;101066.72;5133551;27;20119;-59
2023/03/15 01:51:33;;;;;;;7.00;3.53;;;;;;;1.67;100.00;101071.03;5135081;27;20054;-59
2023/03/15 01:54:07;;;;;;;5.95;3.30;;;;;;;1.66;100.00;101078.84;5135081;27;20057;-59
2023/03/15 01:56:38;;;;;;;6.03;2.92;;;;;;;1.66;100.00;101078.84;5133046;27;20043;-59
2023/03/15 01:59:13;;;;;;;6.27;3.20;;;;;;;1.73;100.00;101075.22;5132892;27;20047;-59
2023/03/15 02:01:45;;;;;;;7.00;3.20;;;;;;;1.71;100.00;101077.00;5133777;27;20096;-59
2023/03/15 02:04:18;;;;;;;8.73;3.45;;;;;;;1.68;100.00;101082.28;5129351;27;20035;-58
2023/03/15 02:06:48;;;;;;;6.00;3.17;;;;;;;1.69;100.00;101086.56;5122608;27;20122;-59
2023/03/15 02:09:20;;;;;;;5.80;3.10;;;;;;;1.71;100.00;101086.53;5116180;27;20409;-58
2023/03/15 02:11:49;;;;;;;6.72;2.92;;;;;;;1.72;100.00;101091.69;5125479;27;20031;-58
2023/03/15 02:14:18;;;;;;;8.65;3.25;;;;;;;1.74;100.00;101097.66;5127098;27;20071;-58
2023/03/15 02:16:49;;;;;;;6.85;2.75;;;;;;;1.74;100.00;101089.91;5124232;27;20080;-58
2023/03/15 02:19:30;;;;;;;6.05;3.00;;;;;;;1.77;100.00;101094.16;5130989;27;20069;-58
2023/03/15 02:22:07;;;;;;;6.80;2.87;;;;;;;1.71;100.00;101094.31;5123941;27;20036;-58
2023/03/15 02:24:43;;;;;;;5.75;2.55;;;;;;;1.74;100.00;101092.50;5118876;27;20409;-59
2023/03/15 02:27:12;;;;;;;5.30;2.97;;;;;;;1.78;100.00;101085.50;5121985;27;20243;-58
2023/03/15 02:29:42;;;;;;;6.10;2.88;;;;;;;1.79;100.00;101097.59;5114937;27;20275;-58
2023/03/15 02:32:10;;;;;;;6.55;3.10;;;;;;;1.80;100.00;101096.66;5118838;27;20104;-58
2023/03/15 02:34:39;;;;;;;6.78;3.13;;;;;;;1.82;100.00;101093.16;5119949;27;20046;-58
2023/03/15 02:37:07;;;;;;;6.93;3.40;;;;;;;1.89;100.00;101100.78;5125347;27;20051;-59
2023/03/15 02:39:36;;;;;;;6.72;3.40;;;;;;;1.92;100.00;101111.94;5131404;27;20051;-58
2023/03/15 02:42:05;;;;;;;5.82;3.45;;;;;;;1.90;100.00;101107.69;5125474;27;20046;-58
2023/03/15 02:44:36;;;;;;;6.35;4.00;;;;;;;1.86;100.00;101110.34;5124180;27;20058;-59
2023/03/15 02:47:10;;;;;;;6.72;3.85;;;;;;;1.84;100.00;101109.53;5123112;27;20069;-59
2023/03/15 02:49:42;;;;;;;7.03;4.18;;;;;;;1.80;100.00;101109.63;5125117;27;20053;-59
2023/03/15 02:52:12;;;;;;;6.28;3.92;;;;;;;1.80;100.00;101110.50;5116733;27;20039;-59
2023/03/15 02:54:42;;;;;;;7.68;4.18;;;;;;;1.81;100.00;101112.22;5125847;27;20043;-58
2023/03/15 02:57:11;;;;;;;6.90;4.20;;;;;;;1.79;100.00;101115.72;5116405;27;20596;-58
2023/03/15 02:59:40;;;;;;;8.18;4.97;;;;;;;1.73;100.00;101121.06;5120172;27;20087;-58
2023/03/15 03:02:11;;;;;;;8.13;4.78;;;;;;;1.72;100.00;101127.13;5121824;27;20117;-58
2023/03/15 03:04:40;;;;;;;7.70;5.03;;;;;;;1.72;100.00;101135.78;5123375;27;20050;-58
2023/03/15 03:07:09;;;;;;;9.23;5.00;;;;;;;1.75;100.00;101142.63;5120445;27;20040;-58
2023/03/15 03:09:37;;;;;;;7.93;4.95;;;;;;;1.74;100.00;101146.09;5117879;27;20065;-59
2023/03/15 03:12:07;;;;;;;13.18;5.68;;;;;;;1.76;100.00;101162.47;5120376;27;20039;-59
2023/03/15 03:14:35;;;;;;;9.80;5.53;;;;;;;1.71;100.00;101160.00;5122385;27;20044;-59
2023/03/15 03:17:04;;;;;;;9.93;5.57;;;;;;;1.64;100.00;101163.63;5120138;27;20114;-59
2023/03/15 03:19:34;;;;;;;10.18;5.50;;;;;;;1.68;100.00;101166.09;5125452;27;20418;-59
2023/03/15 03:22:03;;;;;;;9.10;5.40;;;;;;;1.72;100.00;101172.09;5122510;28;20071;-51
2023/03/15 03:24:32;;;;;;;9.48;5.50;;;;;;;1.67;100.00;101179.09;5121657;28;20539;-52
2023/03/15 03:27:01;;;;;;;9.45;5.68;;;;;;;1.61;100.00;101187.00;5124675;28;20038;-51
2023/03/15 03:29:29;;;;;;;9.18;5.53;;;;;;;1.55;100.00;101184.56;5121268;27;20379;-51
2023/03/15 03:31:59;;;;;;;10.30;6.03;;;;;;;1.58;100.00;101189.69;5121048;27;20071;-49
2023/03/15 03:34:27;;;;;;;9.77;5.72;;;;;;;1.54;100.00;101194.09;5127313;27;20051;-48
2023/03/15 03:36:57;;;;;;;11.02;5.88;;;;;;;1.56;100.00;101199.25;5129321;27;20048;-51
2023/03/15 03:39:26;;;;;;;9.98;5.80;;;;;;;1.54;100.00;101199.28;5129615;27;20059;-51
2023/03/15 03:41:55;;;;;;;9.18;5.78;;;;;;;1.50;100.00;101203.66;5129806;27;20039;-53
2023/03/15 03:44:26;;;;;;;9.60;5.80;;;;;;;1.47;100.00;101205.47;5135653;27;20482;-51
2023/03/15 03:46:54;;;;;;;10.95;6.10;;;;;;;1.38;100.00;101214.31;5127299;27;20063;-49
2023/03/15 03:49:23;;;;;;;9.52;5.43;;;;;;;1.37;100.00;101217.78;5132496;27;20077;-50
2023/03/15 03:51:51;;;;;;;8.75;5.15;;;;;;;1.37;100.00;101219.53;5119242;27;20092;-49
2023/03/15 03:54:21;;;;;;;9.38;5.47;;;;;;;1.39;100.00;101222.91;5127732;27;20043;-53
2023/03/15 03:56:50;;;;;;;10.23;5.97;;;;;;;1.37;100.00;101233.31;5126803;27;20035;-49
2023/03/15 03:59:18;;;;;;;10.10;5.70;;;;;;;1.33;100.00;101231.69;5127740;27;20107;-51
2023/03/15 04:01:47;;;;;;;10.20;5.55;;;;;;;1.38;100.00;101235.03;5130656;27;20042;-49
2023/03/15 04:04:16;;;;;;;11.27;5.47;;;;;;;1.32;100.00;101246.38;5125607;27;20047;-51
2023/03/15 04:06:45;;;;;;;11.38;5.93;;;;;;;1.29;100.00;101245.59;5129234;27;20079;-49
2023/03/15 04:09:14;;;;;;;11.27;6.63;;;;;;;1.25;100.00;101255.16;5127853;27;20042;-51
2023/03/15 04:11:44;;;;;;;10.80;6.00;;;;;;;1.23;100.00;101258.66;5128267;27;20077;-47
2023/03/15 04:14:14;;;;;;;11.55;6.25;;;;;;;1.18;100.00;101261.34;5125997;27;20070;-51
2023/03/15 04:16:42;;;;;;;9.10;5.13;;;;;;;1.19;100.00;101265.66;5127243;27;20489;-54
2023/03/15 04:19:12;;;;;;;9.93;6.05;;;;;;;1.12;100.00;101262.31;5130931;27;20031;-48
2023/03/15 04:21:46;;;;;;;11.40;6.22;;;;;;;1.10;100.00;101268.41;5126324;27;20084;-49
2023/03/15 04:24:15;;;;;;;10.23;6.10;;;;;;;1.06;100.00;101269.34;5122036;27;20043;-52
2023/03/15 04:26:44;;;;;;;10.82;5.80;;;;;;;1.11;100.00;101270.13;5124717;27;20420;-48
2023/03/15 04:29:14;;;;;;;8.88;5.32;;;;;;;1.04;100.00;101266.78;5130768;27;20236;-49
2023/03/15 04:31:42;;;;;;;11.40;6.00;;;;;;;1.00;100.00;101271.16;5127432;27;20043;-50
2023/03/15 04:34:11;;;;;;;9.82;5.53;;;;;;;1.00;100.00;101281.53;5123993;27;20394;-50
2023/03/15 04:36:41;;;;;;;9.75;5.70;;;;;;;0.95;100.00;101282.50;5122652;27;20069;-47
2023/03/15 04:39:11;;;;;;;9.65;6.00;;;;;;;0.82;100.00;101290.50;5131784;27;20054;-50
2023/03/15 04:41:39;;;;;;;10.85;6.07;;;;;;;0.86;100.00;101295.59;5132391;27;20043;-48
2023/03/15 04:44:09;;;;;;;10.43;6.07;;;;;;;0.79;100.00;101290.56;5136015;27;20050;-47
2023/03/15 04:46:38;;;;;;;10.45;6.07;;;;;;;0.67;100.00;101290.75;5133955;27;21168;-49
2023/03/15 04:49:06;;;;;;;11.43;6.30;;;;;;;0.67;100.00;101293.34;5132705;27;20100;-47
2023/03/15 04:51:35;;;;;;;9.95;5.95;;;;;;;0.75;100.00;101296.66;5134992;27;20047;-50
2023/03/15 04:54:03;;;;;;;11.85;6.82;;;;;;;0.79;100.00;101308.69;5131869;27;20043;-48
2023/03/15 04:56:32;;;;;;;10.38;5.90;;;;;;;0.72;100.00;101301.88;5132911;27;20047;-48
2023/03/15 04:59:00;;;;;;;10.48;6.18;;;;;;;0.70;100.00;101308.81;5135594;27;20061;-49
2023/03/15 05:01:32;;;;;;;12.40;6.55;;;;;;;0.74;100.00;101323.44;5134206;27;20057;-48
2023/03/15 05:04:00;;;;;;;12.68;6.60;;;;;;;0.79;100.00;101319.03;5135565;27;20039;-48
2023/03/15 05:06:29;;;;;;;10.52;6.43;;;;;;;0.70;100.00;101318.34;5135460;27;20043;-51
2023/03/15 05:08:58;;;;;;;13.25;6.68;;;;;;;0.66;100.00;101327.88;5127517;27;20039;-51
2023/03/15 05:11:26;;;;;;;11.80;5.97;;;;;;;0.67;100.00;101332.19;5129203;27;20118;-51
2023/03/15 05:13:55;;;;;;;10.23;6.45;;;;;;;0.70;100.00;101337.31;5127681;27;20104;-53
2023/03/15 05:16:23;;;;;;;10.18;5.85;;;;;;;0.68;100.00;101341.63;5124443;27;20482;-51
2023/03/15 05:18:55;;;;;;;9.73;5.72;;;;;;;0.61;100.00;101343.47;5127225;27;20032;-50
2023/03/15 05:21:24;;;;;;;12.80;6.20;;;;;;;0.59;100.00;101349.56;5123540;27;20035;-49
2023/03/15 05:23:52;;;;;;;10.90;5.97;;;;;;;0.63;100.00;101364.19;5123373;27;20485;-51
2023/03/15 05:26:21;;;;;;;11.88;6.60;;;;;;;0.57;100.00;101357.34;5121249;27;20558;-51
2023/03/15 05:28:51;;;;;;;10.48;6.25;;;;;;;0.48;100.00;101366.09;5126209;27;20039;-51
2023/03/15 05:31:19;;;;;;;12.55;7.20;;;;;;;0.44;100.00;101366.19;5126492;27;20559;-50
2023/03/15 05:33:48;;;;;;;12.15;6.45;;;;;;;0.42;100.00;101367.94;5127947;27;20038;-50
2023/03/15 05:36:18;;;;;;;12.85;7.55;;;;;;;0.46;100.00;101378.22;5122717;27;20066;-48
2023/03/15 05:38:46;;;;;;;12.13;6.47;;;;;;;0.48;100.00;101381.63;5128141;27;20497;-49
2023/03/15 05:41:16;;;;;;;11.63;6.43;;;;;;;0.48;100.00;101381.63;5131779;27;20078;-51
2023/03/15 05:43:45;;;;;;;11.68;6.18;;;;;;;0.45;100.00;101378.22;5129773;27;20071;-50
2023/03/15 05:46:14;;;;;;;13.88;7.05;;;;;;;0.40;100.00;101386.06;5117552;27;20043;-53
2023/03/15 05:48:42;;;;;;;14.57;7.40;;;;;;;0.44;100.00;101381.72;5114100;28;20119;-50
2023/03/15 05:51:12;;;;;;;13.93;8.07;;;;;;;0.37;100.00;101388.72;5112325;28;20118;-49
2023/03/15 05:53:42;;;;;;;16.52;8.50;;;;;;;0.35;100.00;101382.69;5108459;28;20100;-48
2023/03/15 05:56:13;;;;;;;12.77;7.22;;;;;;;0.32;100.00;101386.16;5113512;28;20043;-47
2023/03/15 05:58:42;;;;;;;13.90;8.18;;;;;;;0.38;100.00;101390.41;5109311;28;20447;-48
2023/03/15 06:01:10;;;;;;;15.45;8.05;;;;;;;0.40;100.00;101388.66;5111525;28;20155;-48
2023/03/15 06:03:39;;;;;;;13.93;8.73;;;;;;;0.38;100.00;101392.97;5134104;27;20051;-49
2023/03/15 06:06:08;;;;;;;13.35;7.97;;;;;;;0.34;100.00;101396.50;5134845;27;20130;-61
2023/03/15 06:08:36;;;;;;;12.82;8.25;;;;;;;0.36;100.00;101404.25;5134198;27;20071;-60
2023/03/15 06:11:07;;;;;;;16.33;8.07;;;;;;;0.31;100.00;101400.00;5123820;27;20076;-60
2023/03/15 06:13:36;;;;;;;16.02;7.60;;;;;;;0.30;100.00;101408.63;5122627;27;20511;-60
2023/03/15 06:16:05;;;;;;;14.15;8.02;;;;;;;0.28;100.00;101404.34;5123496;27;20565;-59
2023/03/15 06:18:33;;;;;;;13.48;7.85;;;;;;;0.22;100.00;101419.94;5118822;27;20493;-60
2023/03/15 06:21:02;;;;;;;13.65;8.43;;;;;;;0.21;100.00;101423.44;5116393;27;20042;-60
2023/03/15 06:23:30;;;;;;;16.50;8.95;;;;;;;0.26;100.00;101424.22;5121416;27;20097;-60
2023/03/15 06:25:58;;;;;;;15.93;8.40;;;;;;;0.28;100.00;101423.31;5123893;27;20126;-60
2023/03/15 06:28:28;;;;;;;14.25;8.85;;;;;;;0.22;100.00;101427.72;5118678;27;20118;-60
2023/03/15 06:30:57;;;;;;;14.05;7.97;;;;;;;0.28;100.00;101450.94;5122095;27;20107;-60
2023/03/15 06:33:25;;;;;;;13.63;7.95;;;;;;;0.21;100.00;101464.84;5111566;27;20046;-60
2023/03/15 06:35:54;;;;;;;14.02;8.73;;;;;;;0.12;100.00;101477.00;5120068;27;20502;-60
2023/03/15 06:38:23;;;;;;;20.05;9.30;;;;;;;0.16;100.00;101465.75;5122837;27;20035;-61
2023/03/15 06:40:51;;;;;;;18.35;9.73;;;;;;;0.13;100.00;101465.75;5127251;27;20039;-61
2023/03/15 06:43:20;;;;;;;19.45;9.38;;;;;;;0.15;100.00;101465.72;5122468;27;20134;-60
2023/03/15 06:45:52;;;;;;;21.30;9.65;;;;;;;0.20;100.00;101455.34;5126056;27;20043;-60
2023/03/15 06:48:20;;;;;;;20.20;8.60;;;;;;;0.27;100.00;101472.50;5118829;27;20058;-60
2023/03/15 06:50:49;;;;;;;16.90;8.80;;;;;;;0.35;100.00;101473.25;5125522;27;20071;-61
2023/03/15 06:53:17;;;;;;;17.17;8.98;;;;;;;0.38;100.00;101483.56;5121962;27;20085;-61
2023/03/15 06:55:49;;;;;;;17.25;8.65;;;;;;;0.42;100.00;101485.25;5130502;27;20035;-60
2023/03/15 06:58:18;;;;;;;16.25;8.77;;;;;;;0.43;100.00;101486.13;5120045;27;20565;-60
2023/03/15 07:00:48;;;;;;;13.98;7.10;;;;;;;0.47;100.00;101493.81;5121865;27;20489;-60
2023/03/15 07:03:20;;;;;;;16.05;6.80;;;;;;;0.48;100.00;101500.72;5120787;27;20400;-61
2023/03/15 07:05:51;;;;;;;11.75;6.13;;;;;;;0.56;100.00;101495.44;5121736;27;20047;-61
2023/03/15 07:08:20;;;;;;;14.07;6.18;;;;;;;0.61;100.00;101503.13;5123673;27;20054;-60
2023/03/15 07:10:49;;;;;;;17.35;5.90;;;;;;;0.61;100.00;101508.31;5121784;27;20506;-61
2023/03/15 07:13:18;;;;;;;12.05;5.75;;;;;;;0.64;100.00;101516.03;5123580;27;20071;-61
2023/03/15 07:15:52;;;;;;;10.95;4.75;;;;;;;0.69;100.00;101514.25;5125209;27;20207;-61
2023/03/15 07:18:22;;;;;;;14.35;5.57;;;;;;;0.79;100.00;101522.75;5123568;27;20043;-61
2023/03/15 07:20:56;;;;;;;11.82;4.47;;;;;;;0.87;100.00;101530.41;5125400;27;20063;-61
2023/03/15 07:23:25;;;;;;;12.23;5.32;;;;;;;0.98;100.00;101541.47;5130015;27;20047;-62
2023/03/15 07:25:54;;;;;;;11.88;5.38;;;;;;;1.06;100.00;101534.44;5123164;28;20035;-60
2023/03/15 07:28:24;;;;;;;11.50;4.97;;;;;;;1.16;100.00;101536.03;5120021;28;20089;-61
2023/03/15 07:30:55;;;;;;;14.38;5.47;;;;;;;1.38;100.00;101548.69;5122874;28;20050;-60
2023/03/15 07:33:26;;;;;;;10.85;4.60;;;;;;;1.42;100.00;101550.34;5122510;28;20035;-59
2023/03/15 07:35:55;;;;;;;10.70;4.75;;;;;;;1.60;100.00;101545.75;5117231;27;20046;-60
2023/03/15 07:38:25;;;;;;;9.95;4.70;;;;;;;1.79;100.00;101552.31;5124949;28;20376;-58
2023/03/15 07:40:53;;;;;;;10.43;4.68;;;;;;;1.91;100.00;101552.97;5112541;28;20486;-58
2023/03/15 07:43:23;;;;;;;11.30;5.00;;;;;;;2.40;100.00;101557.28;5113476;28;20437;-59
2023/03/15 07:45:51;;;;;;;11.93;4.32;;;;;;;2.44;100.00;101556.34;5133100;27;20055;-58
2023/03/15 07:48:20;;;;;;;10.63;4.55;;;;;;;2.62;100.00;101559.41;5133010;28;20047;-59
2023/03/15 07:50:49;;;;;;;12.20;4.68;;;;;;;2.76;100.00;101569.56;5130514;28;20050;-59
2023/03/15 07:53:18;;;;;;;11.25;4.20;;;;;;;2.83;100.00;101568.53;5133702;27;20064;-59
2023/03/15 07:55:47;;;;;;;11.07;3.72;;;;;;;3.10;100.00;101572.25;5126656;28;20097;-59
2023/03/15 07:58:16;;;;;;;10.57;4.25;;;;;;;3.30;100.00;101589.16;5123100;28;20039;-59
2023/03/15 08:00:48;;;;;;;10.95;3.72;;;;;;;3.46;100.00;101595.69;5117682;28;20050;-59
2023/03/15 08:03:17;;;;;;;10.73;4.35;;;;;;;3.76;100.00;101602.81;5127861;28;20397;-59
2023/03/15 08:05:46;;;;;;;11.18;4.05;;;;;;;3.88;100.00;101603.38;5129422;28;20039;-59
2023/03/15 08:08:16;;;;;;;10.88;3.65;;;;;;;3.97;100.00;101606.66;5115620;28;20099;-59
2023/03/15 08:10:45;;;;;;;7.93;3.30;;;;;;;4.11;100.00;101614.09;5131303;28;20064;-59
2023/03/15 08:13:13;;;;;;;9.98;3.20;;;;;;;4.34;100.00;101610.91;5131247;28;20069;-59
2023/03/15 08:15:45;;;;;;;10.23;3.70;;;;;;;4.43;100.00;101610.66;5125687;27;20138;-60
2023/03/15 08:18:14;;;;;;;11.30;3.55;;;;;;;4.79;100.00;101617.50;5121441;27;20071;-60
2023/03/15 08:20:43;;;;;;;10.32;2.85;;;;;;;5.05;100.00;101622.78;5113813;27;20517;-60
2023/03/15 08:23:15;;;;;;;11.15;3.17;;;;;;;5.10;100.00;101627.00;5135624;27;20079;-60
2023/03/15 08:25:45;;;;;;;7.13;2.78;;;;;;;5.26;100.00;101625.63;5135832;27;20468;-60
2023/03/15 08:28:14;;;;;;;8.75;3.90;;;;;;;5.29;100.00;101633.41;5112733;27;20032;-60
2023/03/15 08:30:42;;;;;;;10.15;5.55;;;;;;;5.32;100.00;101638.50;5122327;27;20477;-60
2023/03/15 08:33:12;;;;;;;12.52;5.40;;;;;;;5.41;100.00;101637.38;5117093;27;20047;-60
2023/03/15 08:35:41;;;;;;;10.07;3.70;;;;;;;5.27;100.00;101632.56;5112269;27;20043;-60
2023/03/15 08:38:10;;;;;;;8.45;4.15;;;;;;;5.16;100.00;101627.69;5114542;28;20510;-60
2023/03/15 08:40:39;;;;;;;9.60;3.30;;;;;;;5.36;100.00;101640.13;5119963;27;20344;-60
2023/03/15 08:43:09;;;;;;;7.65;3.20;;;;;;;5.75;100.00;101641.53;5135282;27;20095;-60
2023/03/15 08:45:37;;;;;;;7.90;3.10;;;;;;;5.88;100.00;101640.22;5135136;27;20395;-60
2023/03/15 08:48:26;;;;;;;8.32;2.83;;;;;;;6.08;100.00;101646.56;5136050;27;20067;-59
2023/03/15 08:50:54;;;;;;;8.07;2.88;;;;;;;6.11;100.00;101648.22;5120976;27;20508;-59
2023/03/15 08:53:22;;;;;;;12.40;3.38;;;;;;;6.14;100.00;101653.38;5115334;27;20043;-59
2023/03/15 08:55:51;;;;;;;7.65;2.50;;;;;;;6.25;100.00;101652.06;5111849;27;20075;-59
2023/03/15 08:58:21;;;;;;;8.88;2.83;;;;;;;6.21;100.00;101666.16;5117567;27;20039;-59
2023/03/15 09:00:50;;;;;;;5.40;2.60;;;;;;;6.50;100.00;101656.44;5135733;27;20092;-59
2023/03/15 09:03:19;;;;;;;8.57;2.92;;;;;;;6.66;100.00;101667.22;5131482;27;20050;-59
2023/03/15 09:05:47;;;;;;;8.15;2.60;;;;;;;6.86;100.00;101666.53;5121392;27;20050;-60
2023/03/15 09:08:19;;;;;;;5.75;2.25;;;;;;;6.89;100.00;101673.41;5124555;27;20686;-59
2023/03/15 09:10:48;;;;;;;9.02;2.35;;;;;;;7.03;100.00;101673.72;5119935;27;20126;-59
2023/03/15 09:13:17;;;;;;;7.10;1.90;;;;;;;7.12;100.00;101672.56;5126831;27;20039;-60
2023/03/15 09:15:50;;;;;;;7.28;2.25;;;;;;;7.28;100.00;101670.22;5128963;27;20487;-60
2023/03/15 09:18:18;;;;;;;6.55;2.00;;;;;;;7.45;100.00;101669.56;5121128;27;20603;-60
2023/03/15 09:20:47;;;;;;;6.07;1.98;;;;;;;7.59;100.00;101675.13;5123164;27;20041;-60
2023/03/15 09:23:16;;;;;;;7.50;2.10;;;;;;;7.60;100.00;101674.19;5127679;27;20496;-60
2023/03/15 09:25:44;;;;;;;7.82;1.45;;;;;;;7.74;100.00;101680.63;5124393;27;20112;-60
2023/03/15 09:28:12;;;;;;;5.75;1.52;;;;;;;7.81;100.00;101676.00;5113881;27;20047;-60
2023/03/15 09:30:42;;;;;;;10.55;1.77;;;;;;;7.98;100.00;101677.97;5125856;27;20513;-60
2023/03/15 09:33:13;;;;;;;7.07;1.80;;;;;;;8.15;100.00;101677.25;5124447;27;20073;-60
2023/03/15 09:35:42;;;;;;;8.60;2.00;;;;;;;8.34;100.00;101672.94;5114167;27;20095;-60
2023/03/15 09:38:11;;;;;;;7.75;2.15;;;;;;;8.51;100.00;101674.00;5121045;27;20055;-60
2023/03/15 09:40:43;;;;;;;7.88;2.10;;;;;;;8.65;100.00;101676.06;5118450;27;20096;-60
2023/03/15 09:43:31;;;;;;;7.07;1.90;;;;;;;8.61;100.00;101673.53;5129197;27;20448;-60
2023/03/15 09:46:11;;;;;;;6.00;2.40;;;;;;;8.69;100.00;101678.47;5122261;27;20055;-59
2023/03/15 09:48:50;;;;;;;6.20;2.00;;;;;;;8.90;100.00;101683.69;5125162;27;20047;-60
2023/03/15 09:51:29;;;;;;;7.82;1.98;;;;;;;9.00;100.00;101676.25;5123591;27;20190;-60
2023/03/15 09:53:59;;;;;;;8.02;1.90;;;;;;;9.19;100.00;101679.75;5122123;27;20088;-60
2023/03/15 09:56:34;;;;;;;7.35;1.23;;;;;;;8.96;96.42;101686.88;5118556;27;20051;-61
2023/03/15 09:59:03;;;;;;;6.07;1.38;;;;;;;9.12;91.66;101681.81;5119420;27;20436;-60
2023/03/15 10:01:35;;;;;;;5.28;1.00;;;;;;;9.25;91.61;101684.69;5121109;27;20505;-61
2023/03/15 10:04:13;;;;;;;10.55;1.75;;;;;;;9.46;89.24;101684.63;5122568;27;20091;-60
2023/03/15 10:06:46;;;;;;;7.10;1.23;;;;;;;9.19;84.03;101687.63;5116361;27;20386;-59
2023/03/15 10:09:16;;;;;;;;;;;;;;;9.49;86.59;101684.50;5122282;27;20073;-60
2023/03/15 10:11:56;;;;;;;4.80;1.00;;;;;;;9.88;86.28;101675.59;5123429;27;19977;-60
2023/03/15 10:14:34;;;;;;;6.55;1.30;;;;;;;9.95;80.83;101684.03;5118538;27;20096;-61
2023/03/15 10:17:10;;;;;;;7.43;1.60;;;;;;;10.26;83.26;101691.25;5123074;27;20039;-60
2023/03/15 10:19:49;;;;;;;3.13;0.88;;;;;;;10.52;81.16;101681.22;5129118;27;21204;-61
2023/03/15 10:22:26;;;;;;;5.72;1.10;;;;;;;10.70;77.15;101692.56;5113221;27;20522;-61
2023/03/15 10:24:59;;;;;;;5.25;1.05;;;;;;;10.88;78.41;101687.25;5126870;27;20043;-60
2023/03/15 10:27:33;;;;;;;4.90;1.20;;;;;;;10.87;80.21;101685.59;5120547;27;20091;-60
2023/03/15 10:30:13;;;;;;;4.43;1.45;;;;;;;10.99;76.77;101687.56;5133667;27;20047;-61
2023/03/15 10:32:44;;;;;;;6.22;1.33;;;;;;;10.99;81.79;101677.88;5133811;27;20058;-60
2023/03/15 10:35:17;;;;;;;7.80;1.60;;;;;;;11.23;78.42;101680.09;5115683;27;20441;-61
2023/03/15 10:37:46;;;;;;;5.88;1.52;;;;;;;11.40;78.83;101683.59;5119885;27;20056;-61
2023/03/15 10:40:15;;;;;;;6.68;1.60;;;;;;;11.56;74.95;101671.28;5125106;27;20127;-61
2023/03/15 10:42:45;;;;;;;6.80;1.52;;;;;;;11.72;71.88;101676.50;5117601;27;20039;-62
2023/03/15 10:45:20;;;;;;;6.68;1.40;;;;;;;11.97;67.12;101681.28;5126226;27;20509;-61
2023/03/15 10:47:50;;;;;;;5.38;1.30;;;;;;;11.94;68.01;101683.19;5117944;27;20448;-61
2023/03/15 10:50:30;;;;;;;6.38;1.27;;;;;;;12.40;66.86;101682.34;5121312;27;20047;-61
2023/03/15 10:53:02;;;;;;;7.25;1.50;;;;;;;12.17;63.45;101684.53;5118367;27;20066;-62
2023/03/15 10:55:33;;;;;;;5.80;1.33;;;;;;;11.55;64.82;101687.16;5114113;27;20044;-62
2023/03/15 10:58:19;;;;;;;4.95;1.20;;;;;;;12.02;63.69;101703.88;5123208;27;20040;-62
2023/03/15 11:00:51;;;;;;;4.57;1.05;;;;;;;11.91;64.87;101694.75;5128092;27;20121;-61
2023/03/15 11:03:21;;;;;;;6.68;0.95;;;;;;;12.24;59.58;101704.31;5125599;27;20053;-60
2023/03/15 11:05:53;;;;;;;5.47;1.58;;;;;;;12.15;63.19;101712.78;5122880;27;20130;-61
2023/03/15 11:08:24;;;;;;;4.03;1.05;;;;;;;12.78;60.07;101705.56;5117241;27;20039;-61
2023/03/15 11:10:58;;;;;;;7.60;1.48;;;;;;;13.00;53.69;101716.50;5114117;27;20048;-61
2023/03/15 11:13:28;;;;;;;3.13;1.02;;;;;;;13.05;55.58;101708.31;5123733;27;20080;-61
2023/03/15 11:16:02;;;;;;;7.13;1.23;;;;;;;13.48;55.83;101715.34;5126693;27;20467;-61
2023/03/15 11:18:35;;;;;;;6.57;1.30;;;;;;;13.60;58.38;101706.63;5126217;27;20043;-61
2023/03/15 11:21:09;;;;;;;5.93;1.27;;;;;;;13.91;52.55;101709.94;5119792;27;20866;-61
2023/03/15 11:23:41;;;;;;;7.15;1.38;;;;;;;13.72;53.58;101720.03;5125837;28;20434;-61
2023/03/15 11:26:17;;;;;;;5.47;1.35;;;;;;;13.26;52.32;101727.22;5116290;28;20043;-62
2023/03/15 11:29:05;;;;;;;3.58;1.05;;;;;;;13.09;46.62;101733.56;5125824;28;20505;-62
2023/03/15 11:31:35;;;;;;;5.93;1.05;;;;;;;13.32;44.64;101731.28;5122322;28;20126;-61
2023/03/15 11:34:08;;;;;;;5.40;0.98;;;;;;;13.23;48.12;101732.72;5114534;28;20051;-61
2023/03/15 11:36:42;;;;;;;5.80;1.13;;;;;;;13.42;42.11;101726.31;5118200;28;20543;-61